Huvudsida
METAR-TAF:

METAR-TAF

Flygplatser :

Vadsø flygplats

Vadsø, Norge

latitud: 70-04N, longitud: 029-51E, höjd: 3 m

Aktuellt väderrapport

Denna rapport gjordes för 39 minuter sedan, klockan 18:20 UTC
Vind 9 kt från väst/nordväst
Temperatur 3°C
Fuktighet 87%
Tryck 1005 hPa
Sikt 10 km eller mer
Få moln på en höjd av 1500 ft
Spridda moln på en höjd av 2600 ft
Brutna moln på en höjd av 4600 ft

METAR: ENVD 201820Z 29009KT 9999 FEW015 SCT026 BKN046 03/01 Q1005

Tid: 20:59 (18:59 UTC)

Väderprognos

Denna rapport gjordes för 1 timme och 59 minuter sedan, klockan 17:00 UTC
Prognos gäller från 20 kl. 18 UTC till 20 kl. 23 UTC
Vind 15 kt från väst/nordväst
Sikt 10 km eller mer
Få moln på en höjd av 1200 ft
Brutna moln på en höjd av 2500 ft
Temporärt
från 20 kl. 18 UTC till 20 kl. 23 UTC
Brutna moln på en höjd av 1400 ft, Cumulonimbus.
regnskurar

TAF: ENVD 201700Z 2018/2023 30015KT 9999 FEW012 BKN025 TEMPO 2018/2023 SHRA BKN014CB

Aktuella väderrapporter och prognoser från 4000 flygplatser (METAR- och TAF-rapporter).

De tillgängliga stationerna syns som gula och röda prickar på kartan.

För musen över prickarna för att se namnen på stationerna.

Klicka sedan för att få väderrapporter och prognoser.

För att ändra kartan: Klicka på de gröna knapparna med ett svart kors på för att zooma in; den gröna knappen med ett streck på för att zooma ut; eller på de gröna pilarna för angränsande kartor.


METAR-TAF: